Surface observations / UK / EGMC

Quebec | Canada | USA | France | UK | Europe | Elsewhere

Display: Info & Location for EGMC | Help decoding METAR

EGMC SOUTHEND-ON-SEA -- UK
Raw surface observations for station EGMC
EGMC 310620Z 27026G39KT 9999 FEW032 10/02 Q0999=
EGMC 310550Z 27024G41KT 9999 FEW036 11/02 Q0998=
EGMC 310520Z 27026G37KT 9999 FEW040 11/01 Q0997=
EGMC 310450Z 28028G44KT 9999 FEW035 11/02 Q0997=
EGMC 310420Z 27024G39KT 9999 FEW032 11/05 Q0995=
EGMC 310350Z 26025KT 9999 FEW028 12/07 Q0995=
EGMC 310250Z 25027G40KT 9999 FEW030 12/06 Q0994=
EGMC 310150Z 26024G41KT 9999 FEW009 SCT017 12/08 Q0994=
EGMC 310050Z 24025KT 9999 FEW018 BKN021 14/09 Q0994=
EGMC 302350Z 24023G37KT 9999 FEW015 BKN019 13/09 Q0995=
EGMC 302320Z 24022KT 9999 FEW010 BKN015 12/09 Q0996=
EGMC 302250Z 24020G30KT 9999 FEW010 BKN012 12/09 Q0997=
EGMC 302220Z 24019G29KT 9999 SCT010 BKN015 11/09 Q0998=
EGMC 302150Z 24019KT 9999 -RA FEW012 BKN014 11/09 Q0999=
EGMC 302120Z 23022KT 9999 -RA FEW008 BKN013 11/08 Q0999=
EGMC 302050Z 23019KT 9999 -RA FEW008 BKN011 10/08 Q1000=
EGMC 302020Z 21019KT 9999 -RA OVC008 09/07 Q1001=
EGMC 301950Z 21016KT 9999 -RA OVC008 09/07 Q1002=
EGMC 301920Z 20014KT 9999 -RA SCT008 OVC016 09/06 Q1003=
EGMC 301850Z 20013KT 9999 RA FEW015 OVC022 08/05 Q1005=
EGMC 301820Z 21013KT 9999 RA FEW015 OVC027 09/05 Q1007=
EGMC 301750Z 22015KT 9999 -RA FEW019 09/03 Q1007=
EGMC 301720Z 23015KT 9999 FEW048 10/01 Q1008=
EGMC 301650Z 25014KT 9999 FEW048 10/M01 Q1008=
EGMC 301620Z 24014KT 9999 FEW048 11/M00 Q1009=
EGMC 301550Z 23016KT 9999 FEW040 11/M00 Q1009=
EGMC 301520Z 23015KT 9999 FEW040 11/M04 Q1009=
EGMC 301450Z 23013KT 9999 FEW040 11/M04 Q1010=
EGMC 301420Z 25012KT 9999 FEW042 11/M06 Q1010=
EGMC 301350Z 24012G24KT 210V280 9999 FEW042 11/M04 Q1011=
EGMC 301320Z 25011KT 210V290 9999 FEW042 11/M02 Q1011=
EGMC 301250Z 27013KT 9999 FEW042 11/M02 Q1011=
EGMC 301220Z 29011KT 260V320 9999 FEW042 11/M02 Q1011=
EGMC 301150Z 32009KT 250V320 9999 FEW042 10/M02 Q1011=
EGMC 301120Z 27012KT 240V310 9999 FEW042 10/M02 Q1011=
EGMC 301050Z 28014KT 9999 FEW042 10/M02 Q1011=
EGMC 301020Z 28013KT 250V330 9999 FEW041 09/M02 Q1010=
EGMC 300950Z 29013KT 9999 FEW042 09/M01 Q1010=
EGMC 300920Z 29015KT 260V320 9999 SCT038 09/M01 Q1010=
EGMC 300850Z 30013G23KT 260V320 9999 SCT037 08/M01 Q1009=
EGMC 300820Z 29015KT 260V320 9999 SCT040 08/M01 Q1009=
EGMC 300750Z 29013G23KT 260V320 9999 FEW030 07/M01 Q1008=
EGMC 300720Z 27016KT 9999 FEW030 07/M00 Q1008=
EGMC 300650Z 27014KT 9999 FEW040 06/M01 Q1007=
EGMC 300620Z 27013KT 9999 FEW040 06/M00 Q1006=